createdAt,value
2023-04-04T00:00:56.851Z,67.20
2023-04-04T00:01:59.099Z,67.24
2023-04-04T00:03:01.303Z,67.43
2023-04-04T00:04:05.170Z,67.54
2023-04-04T00:05:08.133Z,67.65
2023-04-04T00:06:11.220Z,67.87
2023-04-04T00:07:13.832Z,67.87
2023-04-04T00:08:16.458Z,67.71
2023-04-04T00:09:18.708Z,67.79
2023-04-04T00:10:20.969Z,67.65
2023-04-04T00:11:23.266Z,67.18
2023-04-04T00:12:28.362Z,66.94
2023-04-04T00:13:29.551Z,66.74
2023-04-04T00:14:32.326Z,66.84
2023-04-04T00:15:35.615Z,66.84
2023-04-04T00:16:38.526Z,67.20
2023-04-04T00:17:41.316Z,67.41
2023-04-04T00:18:43.498Z,67.48
2023-04-04T00:19:46.734Z,67.48
2023-04-04T00:20:48.862Z,67.40
2023-04-04T00:21:50.828Z,67.33
2023-04-04T00:24:04.174Z,67.13
2023-04-04T00:25:07.552Z,67.25
2023-04-04T00:26:10.049Z,67.25
2023-04-04T00:27:12.994Z,67.31
2023-04-04T00:28:15.662Z,67.69
2023-04-04T00:29:18.037Z,67.73
2023-04-04T00:30:20.476Z,67.63
2023-04-04T00:31:22.635Z,67.30
2023-04-04T00:32:25.127Z,67.26
2023-04-04T00:33:27.601Z,67.16
2023-04-04T00:34:29.849Z,66.88
2023-04-04T00:35:32.055Z,66.91
2023-04-04T00:36:34.926Z,67.02
2023-04-04T00:37:37.757Z,67.21
2023-04-04T00:38:39.839Z,67.37
2023-04-04T00:39:42.017Z,67.59
2023-04-04T00:40:47.709Z,67.77
2023-04-04T00:41:50.131Z,67.72
2023-04-04T00:42:53.600Z,67.66
2023-04-04T00:43:56.630Z,67.44
2023-04-04T00:44:59.560Z,67.31
2023-04-04T00:46:02.211Z,67.36
2023-04-04T00:47:04.650Z,67.16
2023-04-04T00:48:06.938Z,67.13
2023-04-04T00:49:09.446Z,67.04
2023-04-04T00:50:12.138Z,67.14
2023-04-04T00:51:14.421Z,67.14
2023-04-04T00:52:16.682Z,67.01
2023-04-04T00:53:18.936Z,66.92
2023-04-04T00:54:21.130Z,66.92
2023-04-04T00:56:37.071Z,67.14
2023-04-04T00:57:39.400Z,67.49
2023-04-04T00:59:53.840Z,67.54
2023-04-04T01:00:57.233Z,67.33
2023-04-04T01:01:59.993Z,67.61
2023-04-04T01:03:03.042Z,67.60
2023-04-04T01:04:05.756Z,67.58
2023-04-04T01:05:09.335Z,67.37
2023-04-04T01:06:11.776Z,67.15
2023-04-04T01:07:14.030Z,67.36
2023-04-04T01:08:19.383Z,67.47
2023-04-04T01:09:22.500Z,67.41
2023-04-04T01:10:24.833Z,67.09
2023-04-04T01:11:27.093Z,67.03
2023-04-04T01:12:31.030Z,66.98
2023-04-04T01:13:33.529Z,66.98
2023-04-04T01:14:36.011Z,66.99
2023-04-04T01:15:38.283Z,67.19
2023-04-04T01:16:41.074Z,67.24
2023-04-04T01:17:43.904Z,67.35
2023-04-04T01:18:47.773Z,67.55
2023-04-04T01:20:06.601Z,67.43
2023-04-04T01:21:11.621Z,67.30
2023-04-04T01:22:16.193Z,67.28
2023-04-04T01:23:21.018Z,67.25
2023-04-04T01:24:24.513Z,67.53
2023-04-04T01:25:31.927Z,67.42
2023-04-04T01:26:36.155Z,67.20
2023-04-04T01:27:39.327Z,67.30
2023-04-04T01:28:43.522Z,67.37
2023-04-04T01:29:47.630Z,67.49
2023-04-04T01:30:51.973Z,67.47
2023-04-04T01:33:28.597Z,67.43
2023-04-04T01:34:55.662Z,67.38
2023-04-04T01:36:02.188Z,67.30
2023-04-04T01:37:29.124Z,67.45
2023-04-04T01:38:45.521Z,67.54
2023-04-04T01:41:03.365Z,67.62
2023-04-04T01:42:07.774Z,67.93
2023-04-04T01:43:10.809Z,68.00
2023-04-04T01:44:17.144Z,68.03
2023-04-04T01:45:23.257Z,67.99
2023-04-04T01:46:26.189Z,67.71
2023-04-04T01:47:29.021Z,67.48
2023-04-04T01:48:31.083Z,67.36
2023-04-04T01:49:35.139Z,67.28
2023-04-04T01:50:39.001Z,67.33
2023-04-04T01:51:42.211Z,67.54
2023-04-04T01:52:45.397Z,67.57
2023-04-04T01:53:47.604Z,67.67
2023-04-04T01:54:49.943Z,67.80
2023-04-04T01:55:52.615Z,67.85
2023-04-04T01:56:55.658Z,67.88
2023-04-04T01:57:57.938Z,67.66
2023-04-04T01:59:00.559Z,67.21
2023-04-04T02:00:05.553Z,67.01
2023-04-04T02:01:09.739Z,66.89
2023-04-04T02:02:12.117Z,66.78
2023-04-04T02:03:14.840Z,66.62
2023-04-04T02:04:17.086Z,66.53
2023-04-04T02:05:20.104Z,66.76
2023-04-04T02:06:22.452Z,66.87
2023-04-04T02:07:24.627Z,67.14
2023-04-04T02:08:27.467Z,67.41
2023-04-04T02:09:30.069Z,67.38
2023-04-04T02:10:32.395Z,67.57
2023-04-04T02:11:35.003Z,67.69
2023-04-04T02:12:37.700Z,67.70
2023-04-04T02:13:39.650Z,67.77
2023-04-04T02:14:42.154Z,67.71
2023-04-04T02:15:44.992Z,67.77
2023-04-04T02:16:47.388Z,67.55
2023-04-04T02:17:49.608Z,67.37
2023-04-04T02:18:52.605Z,67.24
2023-04-04T02:19:54.679Z,67.17
2023-04-04T02:20:57.717Z,67.13
2023-04-04T02:22:00.111Z,66.99
2023-04-04T02:23:02.512Z,67.09
2023-04-04T02:24:06.309Z,67.14
2023-04-04T02:25:09.189Z,67.13
2023-04-04T02:26:12.086Z,67.18
2023-04-04T02:27:14.294Z,67.46
2023-04-04T02:28:16.954Z,67.31
2023-04-04T02:29:19.039Z,67.11
2023-04-04T02:30:21.109Z,67.08
2023-04-04T02:31:23.915Z,67.23
2023-04-04T02:32:26.617Z,67.39
2023-04-04T02:33:30.093Z,67.60
2023-04-04T02:34:34.208Z,67.92
2023-04-04T02:35:37.227Z,67.93
2023-04-04T02:36:40.050Z,67.91
2023-04-04T02:38:55.158Z,67.68
2023-04-04T02:39:59.161Z,67.77
2023-04-04T02:41:01.654Z,67.89
2023-04-04T02:42:04.265Z,67.87
2023-04-04T02:43:06.337Z,67.77
2023-04-04T02:44:09.455Z,67.40
2023-04-04T02:45:12.498Z,67.29
2023-04-04T02:46:21.660Z,67.40
2023-04-04T02:47:20.727Z,67.45
2023-04-04T02:48:22.891Z,67.55
2023-04-04T02:49:26.875Z,67.61
2023-04-04T02:50:29.131Z,67.58
2023-04-04T02:51:33.286Z,67.27
2023-04-04T02:52:35.561Z,67.41
2023-04-04T02:53:39.558Z,67.69
2023-04-04T02:54:43.739Z,67.78
2023-04-04T02:55:46.745Z,67.76
2023-04-04T02:56:49.080Z,67.61
2023-04-04T02:57:51.250Z,67.58
2023-04-04T02:58:54.150Z,67.49
2023-04-04T02:59:56.278Z,67.38
2023-04-04T03:00:58.469Z,67.29
2023-04-04T03:02:02.601Z,67.32
2023-04-04T03:03:06.686Z,67.18
2023-04-04T03:04:10.971Z,67.38
2023-04-04T03:05:13.204Z,67.58
2023-04-04T03:06:15.780Z,67.26
2023-04-04T03:07:18.584Z,67.06
2023-04-04T03:08:20.554Z,67.08
2023-04-04T03:09:23.675Z,67.21
2023-04-04T03:10:28.602Z,67.30
2023-04-04T03:11:31.585Z,67.45
2023-04-04T03:12:33.740Z,67.73
2023-04-04T03:13:36.614Z,67.80
2023-04-04T03:14:39.216Z,67.80
2023-04-04T03:15:41.686Z,67.89
2023-04-04T03:16:43.890Z,68.07
2023-04-04T03:17:48.487Z,67.97
2023-04-04T03:18:50.677Z,67.76
2023-04-04T03:19:54.401Z,67.71
2023-04-04T03:20:57.292Z,67.80
2023-04-04T03:21:59.360Z,67.87
2023-04-04T03:23:02.944Z,67.68
2023-04-04T03:24:06.417Z,67.31
2023-04-04T03:25:09.692Z,67.30
2023-04-04T03:26:12.322Z,67.42
2023-04-04T03:27:14.473Z,67.43
2023-04-04T03:28:16.540Z,67.58
2023-04-04T03:29:18.714Z,67.71
2023-04-04T03:30:21.118Z,67.63
2023-04-04T03:31:23.452Z,67.59
2023-04-04T03:32:26.209Z,67.33
2023-04-04T03:33:28.368Z,67.35
2023-04-04T03:34:30.532Z,67.54
2023-04-04T03:35:40.024Z,67.63
2023-04-04T03:36:42.601Z,67.34
2023-04-04T03:37:45.016Z,67.35
2023-04-04T03:38:47.385Z,67.40
2023-04-04T03:39:50.906Z,67.38
2023-04-04T03:41:03.834Z,67.60
2023-04-04T03:42:06.487Z,67.67
2023-04-04T03:43:09.218Z,67.59
2023-04-04T03:44:12.577Z,67.76
2023-04-04T03:45:15.172Z,67.79
2023-04-04T03:46:17.918Z,67.79
2023-04-04T03:47:22.226Z,67.80
2023-04-04T03:48:24.689Z,67.75
2023-04-04T03:49:26.992Z,67.85
2023-04-04T03:50:30.606Z,67.79
2023-04-04T03:51:33.170Z,67.85
2023-04-04T03:53:47.211Z,68.20
2023-04-04T03:54:49.355Z,68.00
2023-04-04T03:55:52.785Z,68.10
2023-04-04T03:56:57.024Z,67.90
2023-04-04T03:57:59.445Z,67.82
2023-04-04T03:59:03.528Z,67.66
2023-04-04T04:00:07.905Z,67.82
2023-04-04T04:01:15.669Z,68.00
2023-04-04T04:02:17.770Z,67.65
2023-04-04T04:03:21.629Z,67.80
2023-04-04T04:04:24.286Z,68.06
2023-04-04T04:05:26.544Z,67.89
2023-04-04T04:06:28.737Z,67.78
2023-04-04T04:07:32.127Z,67.76
2023-04-04T04:08:34.252Z,67.85
2023-04-04T04:09:36.770Z,67.95
2023-04-04T04:10:40.087Z,67.93
2023-04-04T04:11:42.276Z,67.94
2023-04-04T04:12:46.161Z,67.83
2023-04-04T04:13:49.710Z,67.82
2023-04-04T04:14:53.201Z,67.60
2023-04-04T04:15:56.185Z,67.60
2023-04-04T04:16:58.988Z,67.78
2023-04-04T04:18:03.016Z,67.75
2023-04-04T04:19:06.283Z,67.77
2023-04-04T04:20:12.135Z,67.64
2023-04-04T04:21:16.311Z,67.32
2023-04-04T04:22:18.778Z,67.27
2023-04-04T04:23:20.964Z,67.29
2023-04-04T04:24:24.842Z,67.07
2023-04-04T04:25:27.037Z,66.80
2023-04-04T04:26:40.508Z,66.72
2023-04-04T04:27:44.283Z,66.61
2023-04-04T04:28:46.667Z,66.62
2023-04-04T04:29:50.093Z,66.77
2023-04-04T04:30:53.713Z,66.73
2023-04-04T04:31:58.415Z,66.63
2023-04-04T04:33:02.929Z,66.72
2023-04-04T04:34:07.556Z,66.96
2023-04-04T04:35:10.540Z,66.87
2023-04-04T04:36:13.635Z,66.80
2023-04-04T04:37:26.727Z,67.04
2023-04-04T04:38:31.133Z,67.28
2023-04-04T04:39:33.834Z,67.45
2023-04-04T04:40:38.612Z,67.48
2023-04-04T04:41:44.110Z,67.56
2023-04-04T04:42:46.620Z,67.67
2023-04-04T04:43:50.635Z,67.49
2023-04-04T04:44:53.112Z,67.10
2023-04-04T04:45:59.047Z,66.79
2023-04-04T04:47:03.520Z,66.65
2023-04-04T04:48:07.446Z,66.65
2023-04-04T04:49:11.757Z,66.84
2023-04-04T04:50:15.336Z,66.73
2023-04-04T04:51:19.371Z,66.78
2023-04-04T04:52:23.283Z,66.94
2023-04-04T04:54:37.401Z,66.98
2023-04-04T04:55:40.267Z,66.95
2023-04-04T04:56:44.644Z,66.92
2023-04-04T04:57:49.058Z,66.92
2023-04-04T04:58:53.436Z,67.02
2023-04-04T04:59:57.457Z,67.09
2023-04-04T05:01:01.623Z,67.13
2023-04-04T05:02:07.615Z,67.11
2023-04-04T05:03:12.890Z,67.16
2023-04-04T05:04:18.282Z,67.31
2023-04-04T05:05:22.451Z,67.21
2023-04-04T05:06:28.808Z,66.91
2023-04-04T05:07:32.978Z,66.84
2023-04-04T05:08:35.436Z,66.92
2023-04-04T05:09:45.242Z,67.11
2023-04-04T05:10:49.957Z,67.16
2023-04-04T05:11:53.388Z,67.07
2023-04-04T05:12:57.680Z,66.99
2023-04-04T05:14:01.549Z,66.98
2023-04-04T05:15:06.713Z,67.13
2023-04-04T05:16:09.378Z,67.11
2023-04-04T05:17:11.823Z,66.97
2023-04-04T05:18:16.027Z,66.93
2023-04-04T05:19:19.016Z,67.12
2023-04-04T05:20:23.253Z,67.32
2023-04-04T05:21:26.048Z,67.28
2023-04-04T05:22:30.402Z,66.95
2023-04-04T05:23:33.220Z,66.69
2023-04-04T05:24:36.245Z,66.36
2023-04-04T05:25:39.768Z,66.22
2023-04-04T05:26:44.374Z,66.40
2023-04-04T05:27:47.778Z,66.52
2023-04-04T05:28:50.600Z,66.50
2023-04-04T05:29:54.312Z,66.52
2023-04-04T05:30:57.533Z,66.34
2023-04-04T05:32:02.520Z,66.12
2023-04-04T05:33:05.472Z,66.32
2023-04-04T05:34:07.772Z,66.42
2023-04-04T05:35:09.875Z,66.61
2023-04-04T05:36:13.134Z,66.99
2023-04-04T05:37:23.231Z,67.22
2023-04-04T05:38:25.492Z,67.41
2023-04-04T05:39:28.272Z,67.46
2023-04-04T05:40:35.120Z,67.58
2023-04-04T05:41:39.162Z,67.42
2023-04-04T05:42:57.405Z,67.04
2023-04-04T05:44:01.669Z,66.86
2023-04-04T05:45:05.544Z,66.86
2023-04-04T05:46:09.303Z,66.84
2023-04-04T05:47:13.910Z,67.13
2023-04-04T05:48:17.982Z,67.39
2023-04-04T05:49:24.760Z,67.41
2023-04-04T05:50:29.737Z,67.28
2023-04-04T05:51:34.231Z,67.31
2023-04-04T05:52:38.224Z,67.73
2023-04-04T05:53:41.121Z,67.88
2023-04-04T05:54:44.273Z,67.98
2023-04-04T05:55:52.536Z,67.83
2023-04-04T05:56:57.892Z,67.81
2023-04-04T05:58:17.155Z,67.97
2023-04-04T05:59:21.367Z,67.62
2023-04-04T06:00:26.532Z,67.39
2023-04-04T06:01:31.241Z,67.30
2023-04-04T06:02:35.482Z,67.26
2023-04-04T06:03:39.633Z,67.13
2023-04-04T06:04:43.965Z,66.98
2023-04-04T06:05:52.211Z,67.21
2023-04-04T06:06:55.102Z,67.18
2023-04-04T06:07:57.767Z,66.97
2023-04-04T06:09:00.080Z,66.95
2023-04-04T06:10:04.164Z,67.00
2023-04-04T06:11:08.477Z,67.05
2023-04-04T06:12:10.683Z,67.15
2023-04-04T06:13:13.361Z,67.16
2023-04-04T06:14:17.558Z,67.21
2023-04-04T06:15:21.719Z,67.32
2023-04-04T06:16:24.168Z,67.21
2023-04-04T06:17:27.380Z,67.02
2023-04-04T06:18:29.484Z,67.01
2023-04-04T06:19:31.619Z,66.71
2023-04-04T06:20:34.709Z,66.67
2023-04-04T06:21:36.808Z,66.67
2023-04-04T06:22:38.977Z,66.87
2023-04-04T06:23:42.564Z,67.16
2023-04-04T06:24:44.663Z,67.23
2023-04-04T06:25:48.912Z,66.90
2023-04-04T06:26:54.005Z,66.68
2023-04-04T06:27:58.185Z,66.71
2023-04-04T06:29:00.938Z,66.79
2023-04-04T06:30:08.188Z,67.06
2023-04-04T06:31:12.813Z,67.22
2023-04-04T06:32:15.041Z,67.15
2023-04-04T06:33:18.818Z,67.11
2023-04-04T06:34:22.937Z,66.87
2023-04-04T06:35:32.757Z,66.75
2023-04-04T06:36:36.985Z,66.84
2023-04-04T06:37:40.469Z,66.88
2023-04-04T06:38:44.919Z,66.80
2023-04-04T06:39:48.998Z,66.78
2023-04-04T06:40:53.628Z,66.89
2023-04-04T06:41:56.241Z,66.92
2023-04-04T06:43:00.773Z,66.74
2023-04-04T06:44:05.834Z,66.70
2023-04-04T06:45:09.658Z,66.62
2023-04-04T06:46:12.299Z,66.62
2023-04-04T06:47:14.348Z,66.27
2023-04-04T06:48:16.422Z,66.01
2023-04-04T06:49:18.586Z,65.95
2023-04-04T06:50:21.654Z,66.00
2023-04-04T06:51:24.393Z,66.28
2023-04-04T06:52:27.077Z,66.49
2023-04-04T06:53:29.525Z,66.81
2023-04-04T06:54:31.596Z,66.95
2023-04-04T06:55:34.666Z,67.07
2023-04-04T06:56:37.195Z,67.00
2023-04-04T06:57:40.087Z,67.02
2023-04-04T06:58:44.773Z,67.00
2023-04-04T06:59:47.187Z,66.96
2023-04-04T07:00:49.489Z,66.98
2023-04-04T07:01:51.597Z,66.53
2023-04-04T07:03:00.910Z,66.58
2023-04-04T07:04:04.570Z,66.58
2023-04-04T07:05:08.709Z,66.53
2023-04-04T07:06:11.745Z,66.51
2023-04-04T07:07:14.384Z,66.23
2023-04-04T07:08:16.438Z,66.18
2023-04-04T07:09:28.715Z,66.36
2023-04-04T07:10:25.194Z,66.41
2023-04-04T07:11:27.346Z,66.43
2023-04-04T07:12:30.344Z,66.36
2023-04-04T07:13:32.485Z,66.39
2023-04-04T07:14:34.531Z,66.12
2023-04-04T07:15:37.030Z,65.89
2023-04-04T07:16:39.252Z,65.72
2023-04-04T07:17:41.706Z,65.67
2023-04-04T07:18:44.617Z,65.81
2023-04-04T07:19:46.704Z,66.17
2023-04-04T07:20:49.077Z,66.48
2023-04-04T07:21:51.165Z,66.35
2023-04-04T07:22:53.293Z,66.15
2023-04-04T07:23:55.256Z,66.05
2023-04-04T07:24:57.699Z,65.79
2023-04-04T07:25:59.818Z,65.75
2023-04-04T07:27:02.511Z,65.94
2023-04-04T07:28:12.471Z,65.78
2023-04-04T07:29:09.240Z,65.83
2023-04-04T07:30:13.188Z,66.38
2023-04-04T07:31:15.309Z,66.49
2023-04-04T07:32:17.829Z,66.59
2023-04-04T07:33:19.882Z,66.97
2023-04-04T07:34:22.078Z,67.29
2023-04-04T07:35:25.478Z,67.51
2023-04-04T07:36:27.953Z,67.35
2023-04-04T07:37:30.233Z,67.16
2023-04-04T07:38:32.786Z,66.74
2023-04-04T07:39:34.877Z,66.61
2023-04-04T07:40:38.159Z,66.67
2023-04-04T07:41:40.638Z,66.63
2023-04-04T07:42:46.192Z,66.51
2023-04-04T07:43:49.236Z,66.36
2023-04-04T07:44:51.906Z,66.33
2023-04-04T07:45:54.418Z,66.34
2023-04-04T07:47:08.556Z,66.30
2023-04-04T07:48:01.201Z,66.45
2023-04-04T07:49:03.497Z,66.86
2023-04-04T07:50:08.184Z,66.65
2023-04-04T07:51:11.503Z,66.21
2023-04-04T07:53:26.044Z,65.79
2023-04-04T07:54:29.023Z,65.82
2023-04-04T07:55:32.417Z,65.87
2023-04-04T07:56:34.993Z,65.70
2023-04-04T07:57:39.970Z,65.82
2023-04-04T07:58:42.638Z,66.04
2023-04-04T07:59:44.834Z,65.92
2023-04-04T08:00:47.447Z,65.84
2023-04-04T08:01:50.031Z,65.71
2023-04-04T08:02:53.715Z,65.63
2023-04-04T08:03:57.500Z,65.48
2023-04-04T08:05:00.835Z,65.72
2023-04-04T08:06:03.508Z,66.00
2023-04-04T08:07:06.804Z,66.00
2023-04-04T08:08:09.014Z,65.78
2023-04-04T08:09:11.249Z,65.76
2023-04-04T08:10:13.951Z,65.92
2023-04-04T08:11:15.911Z,65.86
2023-04-04T08:12:17.967Z,65.82
2023-04-04T08:13:20.141Z,65.82
2023-04-04T08:14:22.774Z,65.94
2023-04-04T08:15:24.984Z,66.18
2023-04-04T08:16:27.496Z,66.41
2023-04-04T08:17:30.147Z,66.37
2023-04-04T08:18:32.235Z,66.37
2023-04-04T08:19:35.332Z,66.31
2023-04-04T08:20:38.209Z,66.28
2023-04-04T08:21:41.893Z,66.27
2023-04-04T08:22:44.034Z,66.17
2023-04-04T08:23:46.192Z,65.98
2023-04-04T08:24:48.292Z,65.96
2023-04-04T08:25:50.809Z,65.92
2023-04-04T08:27:04.598Z,65.77
2023-04-04T08:27:57.853Z,65.77
2023-04-04T08:29:00.367Z,65.68
2023-04-04T08:30:04.382Z,65.76
2023-04-04T08:31:06.976Z,65.66
2023-04-04T08:32:09.542Z,65.80
2023-04-04T08:33:11.827Z,66.01
2023-04-04T08:34:14.359Z,66.16
2023-04-04T08:35:16.583Z,66.24
2023-04-04T08:36:19.609Z,66.20
2023-04-04T08:37:22.098Z,66.20
2023-04-04T08:38:24.182Z,66.30
2023-04-04T08:39:26.377Z,66.34
2023-04-04T08:40:28.853Z,66.24
2023-04-04T08:41:31.216Z,66.03
2023-04-04T08:42:33.584Z,65.74
2023-04-04T08:43:37.930Z,65.82
2023-04-04T08:44:41.828Z,66.12
2023-04-04T08:45:44.990Z,66.28
2023-04-04T08:46:49.007Z,66.34
2023-04-04T08:47:52.030Z,66.13
2023-04-04T08:48:56.146Z,66.37
2023-04-04T08:49:59.966Z,66.40
2023-04-04T08:51:04.030Z,66.56
2023-04-04T08:52:07.015Z,66.31
2023-04-04T08:53:11.581Z,66.28
2023-04-04T08:54:14.959Z,66.27
2023-04-04T08:55:17.778Z,66.33
2023-04-04T08:56:20.455Z,66.30
2023-04-04T08:57:22.682Z,66.17
2023-04-04T08:58:25.890Z,66.11
2023-04-04T08:59:28.226Z,65.95
2023-04-04T09:00:32.650Z,65.77
2023-04-04T09:01:35.279Z,65.67
2023-04-04T09:02:48.173Z,65.85
2023-04-04T09:03:51.551Z,66.10
2023-04-04T09:05:05.403Z,66.13
2023-04-04T09:05:59.167Z,66.13
2023-04-04T09:07:04.234Z,66.13
2023-04-04T09:08:07.625Z,66.03
2023-04-04T09:09:10.146Z,66.23
2023-04-04T09:10:12.431Z,66.22
2023-04-04T09:11:17.048Z,66.16
2023-04-04T09:12:20.734Z,66.01
2023-04-04T09:13:25.128Z,65.70
2023-04-04T09:14:29.451Z,65.47
2023-04-04T09:15:32.689Z,65.38
2023-04-04T09:16:35.327Z,65.54
2023-04-04T09:17:37.421Z,65.53
2023-04-04T09:18:40.977Z,65.74
2023-04-04T09:19:43.089Z,65.77
2023-04-04T09:21:57.807Z,65.89
2023-04-04T09:22:59.979Z,65.70
2023-04-04T09:24:02.656Z,65.62
2023-04-04T09:25:07.860Z,65.46
2023-04-04T09:26:10.280Z,65.01
2023-04-04T09:27:14.469Z,64.56
2023-04-04T09:28:17.393Z,64.85
2023-04-04T09:30:33.391Z,65.64
2023-04-04T09:31:35.995Z,65.73
2023-04-04T09:32:38.390Z,65.78
2023-04-04T09:33:40.554Z,65.46
2023-04-04T09:34:43.828Z,65.35
2023-04-04T09:37:15.198Z,64.86
2023-04-04T09:38:17.702Z,65.15
2023-04-04T09:39:21.659Z,65.59
2023-04-04T09:40:24.090Z,65.70
2023-04-04T09:41:26.346Z,65.61
2023-04-04T09:42:29.920Z,65.42
2023-04-04T09:43:33.166Z,65.07
2023-04-04T09:44:36.700Z,64.60
2023-04-04T09:45:41.424Z,64.44
2023-04-04T09:46:44.792Z,64.49
2023-04-04T09:47:47.931Z,64.54
2023-04-04T09:48:50.147Z,64.41
2023-04-04T09:49:52.879Z,64.29
2023-04-04T09:50:57.996Z,64.25
2023-04-04T09:52:00.763Z,64.29
2023-04-04T09:53:05.736Z,64.46
2023-04-04T09:54:18.718Z,64.51
2023-04-04T09:55:14.451Z,64.51
2023-04-04T09:56:17.771Z,64.22
2023-04-04T09:57:22.766Z,63.83
2023-04-04T09:58:26.765Z,63.68
2023-04-04T09:59:31.233Z,63.87
2023-04-04T10:01:45.825Z,64.29
2023-04-04T10:02:49.169Z,64.59
2023-04-04T10:03:52.769Z,64.56
2023-04-04T10:05:05.225Z,64.46
2023-04-04T10:06:05.508Z,64.22
2023-04-04T10:07:10.950Z,64.30
2023-04-04T10:08:21.715Z,64.21
2023-04-04T10:09:24.576Z,64.22
2023-04-04T10:10:27.912Z,64.02
2023-04-04T10:11:32.090Z,64.11
2023-04-04T10:12:36.474Z,64.41
2023-04-04T10:13:42.384Z,64.52
2023-04-04T10:14:47.288Z,64.66
2023-04-04T10:15:50.162Z,64.82
2023-04-04T10:18:10.936Z,65.03
2023-04-04T10:19:14.924Z,65.33
2023-04-04T10:20:18.355Z,65.31
2023-04-04T10:21:22.198Z,65.18
2023-04-04T10:22:24.810Z,65.16
2023-04-04T10:23:26.974Z,64.83
2023-04-04T10:24:29.209Z,64.73
2023-04-04T10:25:31.589Z,64.78
2023-04-04T10:26:33.768Z,64.89
2023-04-04T10:27:36.437Z,64.94
2023-04-04T10:28:38.647Z,64.97
2023-04-04T10:29:41.313Z,65.37
2023-04-04T10:32:03.700Z,65.12
2023-04-04T10:33:10.813Z,65.20
2023-04-04T10:35:40.744Z,65.11
2023-04-04T10:36:51.092Z,65.01
2023-04-04T10:38:01.744Z,64.47
2023-04-04T10:39:15.769Z,64.53
2023-04-04T10:40:21.258Z,64.42
2023-04-04T10:41:26.813Z,64.17
2023-04-04T10:42:32.407Z,64.37
2023-04-04T10:43:35.013Z,64.16
2023-04-04T10:44:39.274Z,64.26
2023-04-04T10:45:42.310Z,64.45
2023-04-04T10:46:46.734Z,64.34
2023-04-04T10:47:50.389Z,64.38
2023-04-04T10:48:53.973Z,64.12
2023-04-04T10:49:57.706Z,63.96
2023-04-04T10:51:00.691Z,64.10
2023-04-04T10:52:03.420Z,64.27
2023-04-04T10:53:07.029Z,64.27
2023-04-04T10:54:10.725Z,64.52
2023-04-04T10:55:15.886Z,64.40
2023-04-04T10:56:18.749Z,64.15
2023-04-04T10:57:21.570Z,64.02
2023-04-04T10:58:23.808Z,64.29
2023-04-04T10:59:27.287Z,64.16
2023-04-04T11:00:29.659Z,64.15
2023-04-04T11:03:11.572Z,64.12
2023-04-04T11:04:20.689Z,64.38
2023-04-04T11:05:26.229Z,64.30
2023-04-04T11:07:07.218Z,63.37
2023-04-04T11:08:10.579Z,63.23
2023-04-04T11:09:12.679Z,63.38
2023-04-04T11:10:19.307Z,63.58
2023-04-04T11:11:23.123Z,63.72
2023-04-04T11:12:31.427Z,63.89
2023-04-04T11:13:34.314Z,63.99
2023-04-04T11:14:36.485Z,64.08
2023-04-04T11:16:03.973Z,63.76
2023-04-04T11:17:08.325Z,63.40
2023-04-04T11:18:28.943Z,63.59
2023-04-04T11:19:17.315Z,63.61
2023-04-04T11:20:22.320Z,63.31
2023-04-04T11:21:26.204Z,63.29
2023-04-04T11:22:28.324Z,63.37
2023-04-04T11:24:48.043Z,63.64
2023-04-04T11:25:56.788Z,63.77
2023-04-04T11:26:59.377Z,63.84
2023-04-04T11:29:24.636Z,63.99
2023-04-04T11:30:27.933Z,63.66
2023-04-04T11:31:34.803Z,63.46
2023-04-04T11:34:09.999Z,63.47
2023-04-04T11:35:12.138Z,63.70
2023-04-04T11:36:37.171Z,63.44
2023-04-04T11:37:54.932Z,63.03
2023-04-04T11:38:57.946Z,62.99
2023-04-04T11:40:03.712Z,63.30
2023-04-04T11:41:05.839Z,63.40
2023-04-04T11:42:14.563Z,63.57
2023-04-04T11:43:17.629Z,63.71
2023-04-04T11:44:24.535Z,63.82
2023-04-04T11:45:26.895Z,63.70
2023-04-04T11:46:29.226Z,63.53
2023-04-04T11:47:34.774Z,63.71
2023-04-04T11:48:38.996Z,63.68
2023-04-04T11:49:43.865Z,63.11
2023-04-04T11:50:47.673Z,63.16
2023-04-04T11:51:49.847Z,63.55
2023-04-04T11:52:54.523Z,63.52
2023-04-04T11:53:56.728Z,63.42
2023-04-04T11:54:58.808Z,63.47
2023-04-04T11:56:01.453Z,63.41
2023-04-04T11:57:06.915Z,63.49
2023-04-04T11:58:13.012Z,63.50
2023-04-04T11:59:21.456Z,63.50
2023-04-04T12:00:33.417Z,63.65
2023-04-04T12:01:35.532Z,63.65
2023-04-04T12:02:38.894Z,63.52
2023-04-04T12:03:41.224Z,63.44
2023-04-04T12:04:47.173Z,63.28
2023-04-04T12:05:49.997Z,63.21
2023-04-04T12:06:54.267Z,62.83
2023-04-04T12:07:58.042Z,62.88
2023-04-04T12:09:03.272Z,62.85
2023-04-04T12:10:06.946Z,62.88
2023-04-04T12:11:09.086Z,63.04
2023-04-04T12:12:15.482Z,63.10
2023-04-04T12:13:18.307Z,63.16
2023-04-04T12:14:24.004Z,63.15
2023-04-04T12:15:30.101Z,63.11
2023-04-04T12:16:32.988Z,63.20
2023-04-04T12:17:40.234Z,63.34
2023-04-04T12:18:45.010Z,62.79
2023-04-04T12:19:48.349Z,62.47
2023-04-04T12:20:52.251Z,62.55
2023-04-04T12:21:56.060Z,62.35
2023-04-04T12:22:58.593Z,62.28
2023-04-04T12:24:00.890Z,62.47
2023-04-04T12:25:04.331Z,62.61
2023-04-04T12:26:07.949Z,62.28
2023-04-04T12:27:11.367Z,62.23
2023-04-04T12:28:14.151Z,62.44
2023-04-04T12:29:17.528Z,62.63
2023-04-04T12:30:20.684Z,62.86
2023-04-04T12:32:35.522Z,63.10
2023-04-04T12:33:39.770Z,63.11
2023-04-04T12:34:45.553Z,62.97
2023-04-04T12:37:03.293Z,62.61
2023-04-04T12:38:06.551Z,62.51
2023-04-04T12:39:09.885Z,62.55
2023-04-04T12:40:12.837Z,62.72
2023-04-04T12:41:17.853Z,62.94
2023-04-04T12:42:24.500Z,62.96
2023-04-04T12:43:28.779Z,62.75
2023-04-04T12:44:36.765Z,62.73
2023-04-04T12:45:39.912Z,62.64
2023-04-04T12:46:44.486Z,62.66
2023-04-04T12:47:53.324Z,62.65
2023-04-04T12:48:57.086Z,62.62
2023-04-04T12:49:59.878Z,62.25
2023-04-04T12:51:04.141Z,62.32
2023-04-04T12:52:07.485Z,62.32
2023-04-04T12:55:46.944Z,62.56
2023-04-04T12:56:55.850Z,62.74
2023-04-04T12:58:11.014Z,62.83
2023-04-04T12:59:13.306Z,62.77
2023-04-04T13:00:19.983Z,62.82
2023-04-04T13:01:24.022Z,62.97
2023-04-04T13:02:26.279Z,62.95
2023-04-04T13:03:28.689Z,62.94
2023-04-04T13:04:32.457Z,62.92
2023-04-04T13:05:35.688Z,62.96
2023-04-04T13:06:38.624Z,62.75
2023-04-04T13:07:40.907Z,62.73
2023-04-04T13:08:51.395Z,62.88
2023-04-04T13:09:59.170Z,62.58
2023-04-04T13:11:03.725Z,62.25
2023-04-04T13:12:07.232Z,62.30
2023-04-04T13:13:09.545Z,62.38
2023-04-04T13:14:13.208Z,62.67
2023-04-04T13:15:16.873Z,62.72
2023-04-04T13:16:33.684Z,62.79
2023-04-04T13:17:48.522Z,62.81
2023-04-04T13:18:50.665Z,62.49
2023-04-04T13:19:52.817Z,61.99
2023-04-04T13:20:55.585Z,62.78
2023-04-04T13:21:58.594Z,62.70
2023-04-04T13:23:05.268Z,62.72
2023-04-04T13:24:07.660Z,62.72
2023-04-04T13:25:11.904Z,62.62
2023-04-04T13:26:18.348Z,62.78
2023-04-04T13:27:21.882Z,62.76
2023-04-04T13:28:25.561Z,62.76
2023-04-04T13:29:28.342Z,62.91
2023-04-04T13:30:31.043Z,63.12
2023-04-04T13:31:33.191Z,63.27
2023-04-04T13:32:35.307Z,63.21
2023-04-04T13:33:38.657Z,63.34
2023-04-04T13:34:41.344Z,63.08
2023-04-04T13:37:02.402Z,62.77
2023-04-04T13:38:05.066Z,62.69
2023-04-04T13:39:08.350Z,62.68
2023-04-04T13:40:13.064Z,62.88
2023-04-04T13:41:16.227Z,62.59
2023-04-04T13:42:19.407Z,62.61
2023-04-04T13:43:21.981Z,62.76
2023-04-04T13:44:27.138Z,62.93
2023-04-04T13:45:32.196Z,62.80
2023-04-04T13:46:36.143Z,62.85
2023-04-04T13:47:38.616Z,62.77
2023-04-04T13:48:43.647Z,62.76
2023-04-04T13:49:46.911Z,62.87
2023-04-04T13:50:49.883Z,62.89
2023-04-04T13:51:53.223Z,62.75
2023-04-04T13:52:55.566Z,62.76
2023-04-04T13:53:58.122Z,62.59
2023-04-04T13:55:02.453Z,62.62
2023-04-04T13:57:14.179Z,62.86
2023-04-04T13:58:16.363Z,62.96
2023-04-04T13:59:19.690Z,62.98
2023-04-04T14:00:23.292Z,63.05
2023-04-04T14:01:26.652Z,62.98
2023-04-04T14:02:29.212Z,62.89
2023-04-04T14:03:31.489Z,62.98
2023-04-04T14:04:33.928Z,62.92
2023-04-04T14:05:36.115Z,63.06
2023-04-04T14:06:38.300Z,63.25
2023-04-04T14:07:41.188Z,63.38
2023-04-04T14:08:51.132Z,63.40
2023-04-04T14:09:57.386Z,63.41
2023-04-04T14:11:00.556Z,63.16
2023-04-04T14:12:02.784Z,63.26
2023-04-04T14:13:04.879Z,63.30
2023-04-04T14:14:08.265Z,63.16
2023-04-04T14:15:12.630Z,62.98
2023-04-04T14:16:17.729Z,63.10